createdAt,value
2019-02-19T00:01:07.438Z,97752.73
2019-02-19T00:03:35.833Z,97746.78
2019-02-19T00:06:04.227Z,97739.16
2019-02-19T00:08:32.623Z,97737.86
2019-02-19T00:11:01.008Z,97751.81
2019-02-19T00:13:29.408Z,97753.02
2019-02-19T00:15:57.794Z,97751.70
2019-02-19T00:18:26.187Z,97751.70
2019-02-19T00:20:54.583Z,97749.17
2019-02-19T00:23:23.262Z,97749.98
2019-02-19T00:25:51.656Z,97749.12
2019-02-19T00:28:20.049Z,97758.42
2019-02-19T00:30:48.433Z,97755.48
2019-02-19T00:33:16.834Z,97747.41
2019-02-19T00:35:45.225Z,97753.31
2019-02-19T00:38:13.686Z,97752.44
2019-02-19T00:40:42.092Z,97750.72
2019-02-19T00:43:10.484Z,97757.48
2019-02-19T00:45:38.875Z,97755.36
2019-02-19T00:48:07.270Z,97754.92
2019-02-19T00:50:35.697Z,97764.23
2019-02-19T00:53:04.163Z,97768.03
2019-02-19T00:55:32.558Z,97768.81
2019-02-19T00:58:00.958Z,97770.00
2019-02-19T01:00:29.349Z,97770.84
2019-02-19T01:02:57.748Z,97769.13
2019-02-19T01:05:26.425Z,97767.04
2019-02-19T01:07:54.814Z,97769.58
2019-02-19T01:10:23.246Z,97770.84
2019-02-19T01:12:51.716Z,97781.01
2019-02-19T01:15:25.374Z,97773.39
2019-02-19T01:17:50.240Z,97778.86
2019-02-19T01:20:18.638Z,97775.03
2019-02-19T01:22:47.032Z,97775.05
2019-02-19T01:25:15.426Z,97769.50
2019-02-19T01:27:43.829Z,97769.90
2019-02-19T01:30:12.292Z,97777.47
2019-02-19T01:32:40.685Z,97782.92
2019-02-19T01:35:09.221Z,97785.47
2019-02-19T01:37:37.613Z,97787.61
2019-02-19T01:40:08.540Z,97785.91
2019-02-19T01:42:36.931Z,97780.39
2019-02-19T01:45:07.706Z,97786.32
2019-02-19T01:47:36.098Z,97780.36
2019-02-19T01:50:06.731Z,97781.23
2019-02-19T01:52:35.123Z,97780.80
2019-02-19T01:55:04.291Z,97775.71
2019-02-19T01:57:32.685Z,97780.34
2019-02-19T02:00:01.081Z,97768.05
2019-02-19T02:02:29.478Z,97766.78
2019-02-19T02:04:57.877Z,97769.31
2019-02-19T02:07:26.954Z,97773.55
2019-02-19T02:09:55.457Z,97768.05
2019-02-19T02:12:23.849Z,97762.13
2019-02-19T02:14:52.242Z,97765.51
2019-02-19T02:17:21.303Z,97761.67
2019-02-19T02:19:49.798Z,97760.39
2019-02-19T02:22:18.180Z,97760.79
2019-02-19T02:24:46.577Z,97760.34
2019-02-19T02:27:14.971Z,97758.25
2019-02-19T02:29:43.368Z,97762.88
2019-02-19T02:32:11.755Z,97754.84
2019-02-19T02:34:40.142Z,97759.48
2019-02-19T02:37:08.537Z,97759.03
2019-02-19T02:39:36.948Z,97763.69
2019-02-19T02:42:05.610Z,97758.98
2019-02-19T02:44:34.009Z,97766.23
2019-02-19T02:47:02.402Z,97762.81
2019-02-19T02:49:30.795Z,97766.20
2019-02-19T02:51:59.186Z,97767.00
2019-02-19T02:54:27.587Z,97767.45
2019-02-19T02:56:55.990Z,97769.59
2019-02-19T02:59:24.390Z,97766.18
2019-02-19T03:01:52.782Z,97767.45
2019-02-19T03:04:21.175Z,97767.82
2019-02-19T03:06:51.207Z,97767.82
2019-02-19T03:09:19.608Z,97767.41
2019-02-19T03:11:48.156Z,97772.90
2019-02-19T03:14:16.548Z,97778.42
2019-02-19T03:16:45.027Z,97772.90
2019-02-19T03:19:13.424Z,97772.90
2019-02-19T03:21:41.825Z,97775.86
2019-02-19T03:24:10.236Z,97779.65
2019-02-19T03:26:38.626Z,97786.81
2019-02-19T03:29:07.030Z,97784.73
2019-02-19T03:31:35.420Z,97780.92
2019-02-19T03:34:03.818Z,97777.93
2019-02-19T03:36:32.395Z,97781.73
2019-02-19T03:39:00.785Z,97783.45
2019-02-19T03:41:29.362Z,97781.73
2019-02-19T03:43:57.752Z,97790.63
2019-02-19T03:46:27.682Z,97792.34
2019-02-19T03:48:56.078Z,97792.34
2019-02-19T03:51:24.565Z,97794.88
2019-02-19T03:53:52.933Z,97797.42
2019-02-19T03:56:21.417Z,97792.34
2019-02-19T03:58:49.812Z,97797.42
2019-02-19T04:01:18.566Z,97797.42
2019-02-19T04:03:46.959Z,97806.30
2019-02-19T04:06:16.148Z,97810.93
2019-02-19T04:08:44.539Z,97807.13
2019-02-19T04:11:13.484Z,97807.98
2019-02-19T04:13:41.895Z,97805.83
2019-02-19T04:16:10.708Z,97804.57
2019-02-19T04:18:39.103Z,97811.73
2019-02-19T04:21:07.493Z,97804.94
2019-02-19T04:23:35.885Z,97806.63
2019-02-19T04:26:04.375Z,97809.15
2019-02-19T04:28:32.775Z,97810.84
2019-02-19T04:31:01.193Z,97820.13
2019-02-19T04:33:29.599Z,97819.30
2019-02-19T04:35:58.007Z,97815.89
2019-02-19T04:38:26.445Z,97813.72
2019-02-19T04:40:54.863Z,97814.94
2019-02-19T04:43:23.270Z,97817.48
2019-02-19T04:45:51.692Z,97814.89
2019-02-19T04:48:20.088Z,97819.58
2019-02-19T04:50:48.574Z,97826.31
2019-02-19T04:53:17.006Z,97827.58
2019-02-19T04:55:45.404Z,97827.58
2019-02-19T04:58:13.841Z,97830.52
2019-02-19T05:00:42.222Z,97827.53
2019-02-19T05:03:10.611Z,97834.22
2019-02-19T05:05:39.004Z,97831.69
2019-02-19T05:08:07.397Z,97835.89
2019-02-19T05:10:35.791Z,97841.78
2019-02-19T05:13:04.190Z,97837.10
2019-02-19T05:15:32.612Z,97845.17
2019-02-19T05:18:01.002Z,97839.24
2019-02-19T05:20:29.410Z,97841.78
2019-02-19T05:22:57.817Z,97846.46
2019-02-19T05:25:26.217Z,97846.83
2019-02-19T05:27:54.608Z,97852.78
2019-02-19T05:30:23.008Z,97847.65
2019-02-19T05:32:51.400Z,97848.47
2019-02-19T05:35:19.803Z,97850.98
2019-02-19T05:37:48.196Z,97849.68
2019-02-19T05:40:16.674Z,97850.95
2019-02-19T05:42:45.089Z,97855.91
2019-02-19T05:45:13.478Z,97855.91
2019-02-19T05:47:41.888Z,97855.47
2019-02-19T05:50:10.528Z,97854.59
2019-02-19T05:52:38.921Z,97854.14
2019-02-19T05:55:08.181Z,97851.99
2019-02-19T05:57:36.602Z,97849.88
2019-02-19T06:00:09.131Z,97849.85
2019-02-19T06:02:37.506Z,97846.44
2019-02-19T06:05:07.944Z,97856.14
2019-02-19T06:07:36.356Z,97852.73
2019-02-19T06:10:07.791Z,97854.00
2019-02-19T06:12:36.189Z,97852.67
2019-02-19T06:15:06.842Z,97857.29
2019-02-19T06:17:35.233Z,97858.98
2019-02-19T06:20:04.616Z,97865.72
2019-02-19T06:22:33.006Z,97870.81
2019-02-19T06:25:01.404Z,97875.89
2019-02-19T06:27:29.799Z,97873.77
2019-02-19T06:29:58.188Z,97879.72
2019-02-19T06:32:26.586Z,97875.92
2019-02-19T06:34:54.979Z,97881.44
2019-02-19T06:37:23.374Z,97887.33
2019-02-19T06:39:51.773Z,97891.13
2019-02-19T06:42:20.170Z,97893.25
2019-02-19T06:44:48.562Z,97898.32
2019-02-19T06:47:16.971Z,97899.14
2019-02-19T06:49:45.349Z,97902.12
2019-02-19T06:52:13.758Z,97907.26
2019-02-19T06:54:42.213Z,97907.32
2019-02-19T06:57:10.693Z,97910.73
2019-02-19T06:59:39.097Z,97911.61
2019-02-19T07:02:25.572Z,97907.50
2019-02-19T07:04:54.647Z,97908.83
2019-02-19T07:07:23.044Z,97916.10
2019-02-19T07:09:51.448Z,97915.31
2019-02-19T07:12:19.852Z,97915.37
2019-02-19T07:14:48.250Z,97912.89
2019-02-19T07:17:17.762Z,97914.64
2019-02-19T07:19:46.154Z,97915.94
2019-02-19T07:22:14.548Z,97920.22
2019-02-19T07:24:42.937Z,97918.16
2019-02-19T07:27:11.346Z,97927.55
2019-02-19T07:29:39.733Z,97929.27
2019-02-19T07:32:08.134Z,97931.05
2019-02-19T07:34:36.532Z,97933.70
2019-02-19T07:37:04.926Z,97927.82
2019-02-19T07:39:33.323Z,97928.33
2019-02-19T07:42:01.716Z,97931.38
2019-02-19T07:44:30.113Z,97928.03
2019-02-19T07:46:58.506Z,97931.50
2019-02-19T07:49:26.897Z,97938.77
2019-02-19T07:51:55.298Z,97935.91
2019-02-19T07:54:23.694Z,97936.44
2019-02-19T07:56:52.095Z,97936.14
2019-02-19T07:59:20.492Z,97929.41
2019-02-19T08:01:48.887Z,97926.92
2019-02-19T08:04:17.277Z,97925.30
2019-02-19T08:06:45.665Z,97927.91
2019-02-19T08:09:14.056Z,97929.22
2019-02-19T08:11:42.449Z,97928.81
2019-02-19T08:14:10.869Z,97926.33
2019-02-19T08:16:39.306Z,97927.21
2019-02-19T08:19:07.700Z,97930.66
2019-02-19T08:21:36.096Z,97932.34
2019-02-19T08:24:04.493Z,97932.36
2019-02-19T08:26:32.907Z,97934.56
2019-02-19T08:29:11.415Z,97930.79
2019-02-19T08:31:31.413Z,97923.20
2019-02-19T08:33:59.890Z,97929.22
2019-02-19T08:36:29.649Z,97930.97
2019-02-19T08:38:58.259Z,97928.52
2019-02-19T08:41:26.659Z,97933.69
2019-02-19T08:43:55.062Z,97934.59
2019-02-19T08:46:23.457Z,97938.94
2019-02-19T08:48:51.845Z,97937.30
2019-02-19T08:51:20.243Z,97928.47
2019-02-19T08:53:48.630Z,97939.17
2019-02-19T08:56:17.020Z,97939.62
2019-02-19T08:58:45.411Z,97939.25
2019-02-19T09:01:13.806Z,97941.50
2019-02-19T09:03:42.200Z,97936.07
2019-02-19T09:06:10.585Z,97938.25
2019-02-19T09:08:38.989Z,97937.46
2019-02-19T09:11:07.378Z,97936.22
2019-02-19T09:13:35.769Z,97935.91
2019-02-19T09:16:04.183Z,97933.84
2019-02-19T09:18:32.546Z,97932.64
2019-02-19T09:21:00.934Z,97936.11
2019-02-19T09:23:29.322Z,97934.89
2019-02-19T09:25:57.712Z,97942.13
2019-02-19T09:28:26.108Z,97947.77
2019-02-19T09:30:54.493Z,97945.33
2019-02-19T09:33:23.098Z,97939.42
2019-02-19T09:35:51.485Z,97939.92
2019-02-19T09:38:19.875Z,97942.92
2019-02-19T09:40:48.263Z,97942.55
2019-02-19T09:43:16.660Z,97940.03
2019-02-19T09:45:45.051Z,97938.80
2019-02-19T09:48:13.445Z,97931.19
2019-02-19T09:50:41.835Z,97928.67
2019-02-19T09:53:10.226Z,97925.29
2019-02-19T09:55:38.618Z,97924.08
2019-02-19T09:58:07.007Z,97923.70
2019-02-19T10:00:35.464Z,97923.74
2019-02-19T10:03:03.851Z,97917.38
2019-02-19T10:05:32.239Z,97915.27
2019-02-19T10:08:00.629Z,97914.44
2019-02-19T10:10:29.017Z,97916.58
2019-02-19T10:12:57.403Z,97902.97
2019-02-19T10:15:25.793Z,97900.43
2019-02-19T10:17:54.194Z,97905.12
2019-02-19T10:20:22.580Z,97912.36
2019-02-19T10:22:50.978Z,97917.05
2019-02-19T10:25:19.361Z,97907.25
2019-02-19T10:27:47.761Z,97912.77
2019-02-19T10:30:17.789Z,97917.45
2019-02-19T10:32:46.184Z,97914.05
2019-02-19T10:35:14.568Z,97906.77
2019-02-19T10:37:42.963Z,97903.80
2019-02-19T10:40:18.507Z,97901.62
2019-02-19T10:42:46.908Z,97893.92
2019-02-19T10:45:20.693Z,97894.75
2019-02-19T10:47:49.085Z,97895.54
2019-02-19T10:50:17.543Z,97895.06
2019-02-19T10:52:46.105Z,97890.34
2019-02-19T10:55:14.527Z,97889.85
2019-02-19T10:57:42.910Z,97888.06
2019-02-19T11:00:19.822Z,97884.96
2019-02-19T11:02:48.272Z,97882.70
2019-02-19T11:05:16.685Z,97886.50
2019-02-19T11:07:45.061Z,97883.02
2019-02-19T11:10:14.349Z,97875.31
2019-02-19T11:12:42.731Z,97876.95
2019-02-19T11:15:12.684Z,97866.64
2019-02-19T11:17:41.058Z,97870.45
2019-02-19T11:20:21.470Z,97862.23
2019-02-19T11:22:49.900Z,97862.55
2019-02-19T11:25:18.716Z,97852.97
2019-02-19T11:27:47.235Z,97846.41
2019-02-19T11:30:17.859Z,97844.97
2019-02-19T11:32:46.260Z,97835.72
2019-02-19T11:35:14.759Z,97845.33
2019-02-19T11:37:43.148Z,97842.40
2019-02-19T11:40:12.902Z,97836.95
2019-02-19T11:42:41.564Z,97829.44
2019-02-19T11:45:12.693Z,97828.99
2019-02-19T11:47:41.086Z,97826.66
2019-02-19T11:50:12.170Z,97815.33
2019-02-19T11:52:40.546Z,97805.72
2019-02-19T11:55:14.258Z,97803.73
2019-02-19T11:57:42.648Z,97802.67
2019-02-19T12:00:17.138Z,97806.31
2019-02-19T12:02:45.570Z,97803.86
2019-02-19T12:05:13.976Z,97795.85
2019-02-19T12:07:42.380Z,97810.92
2019-02-19T12:10:12.059Z,97810.50
2019-02-19T12:12:40.604Z,97808.08
2019-02-19T12:15:11.772Z,97809.52
2019-02-19T12:17:40.166Z,97806.73
2019-02-19T12:20:13.461Z,97808.55
2019-02-19T12:22:41.856Z,97810.98
2019-02-19T12:25:10.684Z,97808.23
2019-02-19T12:27:39.147Z,97807.30
2019-02-19T12:30:11.071Z,97809.91
2019-02-19T12:32:39.463Z,97732.70
2019-02-19T12:35:08.606Z,97800.41
2019-02-19T12:37:36.989Z,97792.50
2019-02-19T12:40:08.415Z,97788.97
2019-02-19T12:42:36.820Z,97779.40
2019-02-19T12:45:07.588Z,97780.63
2019-02-19T12:47:35.982Z,97781.88
2019-02-19T12:50:07.362Z,97795.99
2019-02-19T12:52:35.778Z,97790.45
2019-02-19T12:55:04.472Z,97793.99
2019-02-19T12:57:32.857Z,97786.26
2019-02-19T13:00:01.295Z,97781.43
2019-02-19T13:02:29.667Z,97775.76
2019-02-19T13:04:58.060Z,97773.56
2019-02-19T13:07:26.475Z,97774.34
2019-02-19T13:09:54.864Z,97777.79
2019-02-19T13:12:23.253Z,97778.34
2019-02-19T13:14:51.644Z,97786.10
2019-02-19T13:17:20.033Z,97778.47
2019-02-19T13:19:48.450Z,97781.01
2019-02-19T13:22:16.835Z,97784.42
2019-02-19T13:24:45.266Z,97782.17
2019-02-19T13:27:13.734Z,97778.23
2019-02-19T13:29:42.123Z,97777.34
2019-02-19T13:32:10.519Z,97780.72
2019-02-19T13:34:38.911Z,97779.75
2019-02-19T13:37:07.372Z,97781.36
2019-02-19T13:39:35.758Z,97778.64
2019-02-19T13:42:04.148Z,97782.86
2019-02-19T13:44:32.541Z,97779.27
2019-02-19T13:47:00.928Z,97774.89
2019-02-19T13:49:29.313Z,97768.33
2019-02-19T13:51:59.348Z,97767.00
2019-02-19T13:54:28.810Z,97767.87
2019-02-19T13:56:57.202Z,97767.39
2019-02-19T13:59:25.667Z,97769.41
2019-02-19T14:01:54.088Z,97764.22
2019-02-19T14:04:22.470Z,97761.52
2019-02-19T14:06:50.859Z,97761.83
2019-02-19T14:09:19.295Z,97761.45
2019-02-19T14:11:47.724Z,97758.91
2019-02-19T14:14:27.042Z,97753.75
2019-02-19T14:16:57.204Z,97749.39
2019-02-19T14:19:27.248Z,97751.78
2019-02-19T14:21:57.277Z,97748.67
2019-02-19T14:24:39.368Z,97761.23
2019-02-19T14:27:18.062Z,97759.14
2019-02-19T14:29:53.881Z,97765.55
2019-02-19T14:32:40.393Z,97769.81
2019-02-19T14:35:23.062Z,97770.19
2019-02-19T14:37:53.121Z,97773.19
2019-02-19T14:40:35.458Z,97770.64
2019-02-19T14:43:14.297Z,97767.19
2019-02-19T14:46:02.140Z,97764.87
2019-02-19T14:48:43.810Z,97766.76
2019-02-19T14:51:13.843Z,97773.34
2019-02-19T14:53:43.951Z,97773.03
2019-02-19T14:56:16.708Z,97773.48
2019-02-19T14:59:02.929Z,97765.89
2019-02-19T15:01:45.123Z,97773.28
2019-02-19T15:04:20.674Z,97775.83
2019-02-19T15:06:50.701Z,97774.64
2019-02-19T15:09:36.999Z,97780.35
2019-02-19T15:12:12.506Z,97777.36
2019-02-19T15:14:45.257Z,97769.69
2019-02-19T15:17:31.360Z,97780.42
2019-02-19T15:20:04.260Z,97767.87
2019-02-19T15:22:49.071Z,97763.03
2019-02-19T15:25:25.211Z,97766.45
2019-02-19T15:28:01.248Z,97759.23
2019-02-19T15:30:39.741Z,97762.76
2019-02-19T15:33:09.767Z,97763.25
2019-02-19T15:35:42.869Z,97767.56
2019-02-19T15:38:24.909Z,97769.30
2019-02-19T15:41:12.988Z,97765.79
2019-02-19T15:43:48.943Z,97758.92
2019-02-19T15:46:21.643Z,97763.17
2019-02-19T15:49:08.011Z,97772.20
2019-02-19T15:51:38.051Z,97768.33
2019-02-19T15:54:17.248Z,97770.95
2019-02-19T15:57:02.583Z,97774.87
2019-02-19T15:59:32.775Z,97772.37
2019-02-19T16:02:05.231Z,97771.53
2019-02-19T16:04:35.275Z,97774.59
2019-02-19T16:07:21.416Z,97774.14
2019-02-19T16:09:57.189Z,97779.72
2019-02-19T16:12:32.725Z,97774.95
2019-02-19T16:15:02.782Z,97771.95
2019-02-19T16:17:39.126Z,97772.33
2019-02-19T16:20:10.904Z,97770.17
2019-02-19T16:22:56.784Z,97776.97
2019-02-19T16:25:32.564Z,97771.11
2019-02-19T16:28:02.633Z,97777.79
2019-02-19T16:30:47.459Z,97780.49
2019-02-19T16:33:23.487Z,97781.01
2019-02-19T16:35:56.461Z,97778.66
2019-02-19T16:38:38.103Z,97783.09
2019-02-19T16:41:10.539Z,97786.70
2019-02-19T16:43:43.227Z,97785.95
2019-02-19T16:46:25.147Z,97795.11
2019-02-19T16:49:00.901Z,97798.61
2019-02-19T16:51:30.934Z,97806.75
2019-02-19T16:54:04.048Z,97809.24
2019-02-19T16:56:36.782Z,97809.94
2019-02-19T16:59:07.717Z,97818.36
2019-02-19T17:01:41.071Z,97821.67
2019-02-19T17:04:29.232Z,97823.27
2019-02-19T17:07:11.304Z,97823.63
2019-02-19T17:09:44.340Z,97827.39
2019-02-19T17:12:30.720Z,97820.56
2019-02-19T17:15:06.474Z,97825.78
2019-02-19T17:17:39.225Z,97829.70
2019-02-19T17:20:28.795Z,97829.41
2019-02-19T17:22:50.850Z,97833.00
2019-02-19T17:25:20.896Z,97832.25
2019-02-19T17:27:59.601Z,97836.23
2019-02-19T17:30:38.348Z,97830.80
2019-02-19T17:33:26.571Z,97832.65
2019-02-19T17:35:59.443Z,97840.42
2019-02-19T17:38:32.167Z,97839.59
2019-02-19T17:41:14.187Z,97842.19
2019-02-19T17:43:53.274Z,97839.64
2019-02-19T17:46:41.397Z,97834.58
2019-02-19T17:49:23.334Z,97841.88
2019-02-19T17:52:05.066Z,97831.58
2019-02-19T17:54:35.109Z,97836.81
2019-02-19T17:57:21.548Z,97847.55
2019-02-19T18:00:00.635Z,97846.69
2019-02-19T18:02:42.574Z,97848.84
2019-02-19T18:05:27.569Z,97845.03
2019-02-19T18:08:03.835Z,97853.25
2019-02-19T18:10:33.865Z,97860.16
2019-02-19T18:13:03.903Z,97860.19
2019-02-19T18:15:40.079Z,97860.58
2019-02-19T18:18:12.997Z,97866.59
2019-02-19T18:20:47.312Z,97865.33
2019-02-19T18:23:11.577Z,97848.86
2019-02-19T18:25:39.967Z,97866.33
2019-02-19T18:28:08.364Z,97864.66
2019-02-19T18:30:36.779Z,97863.88
2019-02-19T18:33:05.169Z,97863.92
2019-02-19T18:35:33.930Z,97862.69
2019-02-19T18:38:02.335Z,97860.16
2019-02-19T18:40:30.808Z,97867.08
2019-02-19T18:42:59.204Z,97869.68
2019-02-19T18:45:27.695Z,97874.42
2019-02-19T18:47:56.086Z,97879.59
2019-02-19T18:50:24.494Z,97882.59
2019-02-19T18:52:52.878Z,97888.55
2019-02-19T18:55:21.269Z,97894.16
2019-02-19T18:57:50.645Z,97895.50
2019-02-19T19:00:19.108Z,97894.68
2019-02-19T19:02:47.513Z,97905.44
2019-02-19T19:05:15.917Z,97904.66
2019-02-19T19:07:44.309Z,97906.00
2019-02-19T19:10:12.865Z,97903.47
2019-02-19T19:12:41.292Z,97906.51
2019-02-19T19:15:10.566Z,97903.98
2019-02-19T19:17:38.974Z,97913.48
2019-02-19T19:20:10.247Z,97908.34
2019-02-19T19:22:38.640Z,97906.23
2019-02-19T19:25:07.781Z,97907.12
2019-02-19T19:27:36.177Z,97911.89
2019-02-19T19:30:07.454Z,97906.86
2019-02-19T19:32:35.841Z,97913.36
2019-02-19T19:35:05.977Z,97917.69
2019-02-19T19:37:34.370Z,97931.03
2019-02-19T19:40:02.758Z,97938.38
2019-02-19T19:42:31.150Z,97936.72
2019-02-19T19:45:00.478Z,97940.63
2019-02-19T19:47:28.869Z,97942.86
2019-02-19T19:49:57.256Z,97953.56
2019-02-19T19:52:25.649Z,97916.17
2019-02-19T19:54:54.037Z,97952.30
2019-02-19T19:57:22.461Z,97948.90
2019-02-19T19:59:50.848Z,97946.80
2019-02-19T20:02:20.069Z,97948.97
2019-02-19T20:04:48.547Z,97949.89
2019-02-19T20:07:16.977Z,97957.61
2019-02-19T20:09:45.369Z,97967.03
2019-02-19T20:12:13.772Z,97966.66
2019-02-19T20:14:42.196Z,97968.00
2019-02-19T20:17:10.599Z,97978.30
2019-02-19T20:19:38.984Z,97977.89
2019-02-19T20:22:07.418Z,97977.52
2019-02-19T20:24:35.822Z,97971.58
2019-02-19T20:27:04.240Z,97972.04
2019-02-19T20:29:32.668Z,97965.68
2019-02-19T20:32:01.056Z,97966.16
2019-02-19T20:34:29.481Z,97964.09
2019-02-19T20:36:57.867Z,97966.72
2019-02-19T20:39:26.287Z,97968.48
2019-02-19T20:41:54.749Z,97968.52
2019-02-19T20:44:23.171Z,97974.95
2019-02-19T20:46:51.562Z,97979.64
2019-02-19T20:49:20.075Z,97980.07
2019-02-19T20:51:48.548Z,97986.92
2019-02-19T20:54:16.947Z,97981.36
2019-02-19T20:56:45.343Z,97980.09
2019-02-19T20:59:13.769Z,97983.94
2019-02-19T21:01:42.264Z,97988.70
2019-02-19T21:04:10.677Z,97990.40
2019-02-19T21:06:39.070Z,97998.11
2019-02-19T21:09:07.544Z,98005.86
2019-02-19T21:11:35.943Z,97998.61
2019-02-19T21:14:04.524Z,98002.08
2019-02-19T21:16:32.922Z,98005.10
2019-02-19T21:19:01.491Z,98006.41
2019-02-19T21:21:29.900Z,98013.28
2019-02-19T21:23:59.134Z,98012.02
2019-02-19T21:26:28.461Z,98010.75
2019-02-19T21:28:56.865Z,98011.61
2019-02-19T21:31:25.274Z,98008.65
2019-02-19T21:33:53.696Z,98014.63
2019-02-19T21:36:22.108Z,98022.75
2019-02-19T21:38:52.418Z,98020.19
2019-02-19T21:41:20.640Z,98022.75
2019-02-19T21:43:49.034Z,98029.16
2019-02-19T21:46:17.430Z,98027.87
2019-02-19T21:48:48.137Z,98032.59
2019-02-19T21:51:16.406Z,98032.98
2019-02-19T21:53:44.796Z,98031.30
2019-02-19T21:56:13.192Z,98021.91
2019-02-19T21:58:41.592Z,98030.45
2019-02-19T22:01:10.015Z,98030.02
2019-02-19T22:03:38.465Z,98025.74
2019-02-19T22:06:06.863Z,98024.05
2019-02-19T22:08:35.280Z,98027.44
2019-02-19T22:11:03.707Z,98029.16
2019-02-19T22:13:32.466Z,98032.56
2019-02-19T22:16:00.859Z,98022.72
2019-02-19T22:18:29.248Z,98022.72
2019-02-19T22:21:02.249Z,98024.86
2019-02-19T22:23:30.644Z,98034.64
2019-02-19T22:25:59.075Z,98030.80
2019-02-19T22:28:27.464Z,98028.67
2019-02-19T22:30:55.868Z,98027.38
2019-02-19T22:33:24.260Z,98028.64
2019-02-19T22:35:52.668Z,98028.62
2019-02-19T22:38:21.063Z,98028.20
2019-02-19T22:40:55.188Z,98031.14
2019-02-19T22:43:19.651Z,98034.11
2019-02-19T22:45:48.036Z,98037.92
2019-02-19T22:48:16.432Z,98039.18
2019-02-19T22:50:44.816Z,98035.33
2019-02-19T22:53:31.049Z,98036.59
2019-02-19T22:56:01.225Z,98039.14
2019-02-19T22:58:29.617Z,98045.13
2019-02-19T23:01:02.413Z,98045.11
2019-02-19T23:03:30.901Z,98047.66
2019-02-19T23:05:59.291Z,98054.47
2019-02-19T23:08:27.691Z,98048.91
2019-02-19T23:10:56.120Z,98044.22
2019-02-19T23:13:24.509Z,98048.89
2019-02-19T23:15:52.926Z,98046.75
2019-02-19T23:18:21.322Z,98054.39
2019-02-19T23:20:49.745Z,98048.81
2019-02-19T23:23:18.135Z,98050.50
2019-02-19T23:25:46.551Z,98050.48
2019-02-19T23:28:14.944Z,98050.90
2019-02-19T23:30:43.391Z,98057.27
2019-02-19T23:33:11.862Z,98058.94
2019-02-19T23:35:47.681Z,98059.36
2019-02-19T23:38:16.106Z,98059.77
2019-02-19T23:40:44.493Z,98062.28
2019-02-19T23:43:12.890Z,98062.25
2019-02-19T23:45:41.279Z,98063.06
2019-02-19T23:48:09.706Z,98063.07
2019-02-19T23:50:38.099Z,98061.78
2019-02-19T23:53:06.489Z,98066.45
2019-02-19T23:55:34.936Z,98069.80
2019-02-19T23:58:03.360Z,98065.53
